sensor_id;sensor_type;location;lat;lon;timestamp;P1;durP1;ratioP1;P2;durP2;ratioP2
13406;SDS011;6774;48.208;10.766;2022-08-01T00:00:51;1.87;;;1.53;;
13406;SDS011;6774;48.208;10.766;2022-08-01T00:03:18;1.40;;;1.30;;
13406;SDS011;6774;48.208;10.766;2022-08-01T00:05:47;2.03;;;1.60;;
13406;SDS011;6774;48.208;10.766;2022-08-01T00:08:14;2.00;;;1.90;;
13406;SDS011;6774;48.208;10.766;2022-08-01T00:10:44;2.57;;;1.07;;
13406;SDS011;6774;48.208;10.766;2022-08-01T00:13:12;1.53;;;1.43;;
13406;SDS011;6774;48.208;10.766;2022-08-01T00:15:40;1.27;;;1.23;;
13406;SDS011;6774;48.208;10.766;2022-08-01T00:18:19;1.30;;;1.30;;
13406;SDS011;6774;48.208;10.766;2022-08-01T00:20:48;2.03;;;1.93;;
13406;SDS011;6774;48.208;10.766;2022-08-01T00:23:16;4.80;;;1.67;;
13406;SDS011;6774;48.208;10.766;2022-08-01T00:25:45;2.30;;;1.67;;
13406;SDS011;6774;48.208;10.766;2022-08-01T00:28:13;2.90;;;1.90;;
13406;SDS011;6774;48.208;10.766;2022-08-01T00:30:41;1.43;;;1.33;;
13406;SDS011;6774;48.208;10.766;2022-08-01T00:33:09;6.93;;;3.10;;
13406;SDS011;6774;48.208;10.766;2022-08-01T00:35:37;1.57;;;1.47;;
13406;SDS011;6774;48.208;10.766;2022-08-01T00:38:05;2.57;;;2.17;;
13406;SDS011;6774;48.208;10.766;2022-08-01T00:40:33;0.90;;;0.90;;
13406;SDS011;6774;48.208;10.766;2022-08-01T00:43:02;2.90;;;1.77;;
13406;SDS011;6774;48.208;10.766;2022-08-01T00:45:30;1.50;;;1.07;;
13406;SDS011;6774;48.208;10.766;2022-08-01T00:47:58;1.33;;;1.23;;
13406;SDS011;6774;48.208;10.766;2022-08-01T00:50:26;1.23;;;1.20;;
13406;SDS011;6774;48.208;10.766;2022-08-01T00:52:54;1.73;;;1.73;;
13406;SDS011;6774;48.208;10.766;2022-08-01T00:55:22;1.47;;;1.47;;
13406;SDS011;6774;48.208;10.766;2022-08-01T00:57:51;2.20;;;1.93;;
13406;SDS011;6774;48.208;10.766;2022-08-01T01:00:33;1.40;;;1.30;;
13406;SDS011;6774;48.208;10.766;2022-08-01T01:03:19;1.70;;;1.00;;
13406;SDS011;6774;48.208;10.766;2022-08-01T01:06:01;14.57;;;2.63;;
13406;SDS011;6774;48.208;10.766;2022-08-01T01:08:39;2.20;;;1.60;;
13406;SDS011;6774;48.208;10.766;2022-08-01T01:11:13;1.80;;;1.70;;
13406;SDS011;6774;48.208;10.766;2022-08-01T01:13:49;1.77;;;1.70;;
13406;SDS011;6774;48.208;10.766;2022-08-01T01:16:20;1.93;;;1.83;;
13406;SDS011;6774;48.208;10.766;2022-08-01T01:18:51;2.07;;;1.97;;
13406;SDS011;6774;48.208;10.766;2022-08-01T01:24:28;2.23;;;1.67;;
13406;SDS011;6774;48.208;10.766;2022-08-01T01:27:06;1.57;;;1.47;;
13406;SDS011;6774;48.208;10.766;2022-08-01T01:29:43;1.87;;;1.57;;
13406;SDS011;6774;48.208;10.766;2022-08-01T01:32:27;2.07;;;1.97;;
13406;SDS011;6774;48.208;10.766;2022-08-01T01:35:00;2.10;;;1.97;;
13406;SDS011;6774;48.208;10.766;2022-08-01T01:37:32;1.90;;;1.80;;
13406;SDS011;6774;48.208;10.766;2022-08-01T01:40:01;1.93;;;1.83;;
13406;SDS011;6774;48.208;10.766;2022-08-01T01:42:31;1.60;;;1.50;;
13406;SDS011;6774;48.208;10.766;2022-08-01T01:45:02;1.57;;;1.57;;
13406;SDS011;6774;48.208;10.766;2022-08-01T01:47:32;1.97;;;1.90;;
13406;SDS011;6774;48.208;10.766;2022-08-01T01:50:02;2.17;;;2.07;;
13406;SDS011;6774;48.208;10.766;2022-08-01T01:52:31;1.67;;;1.57;;
13406;SDS011;6774;48.208;10.766;2022-08-01T01:55:00;2.07;;;1.97;;
13406;SDS011;6774;48.208;10.766;2022-08-01T01:57:32;2.03;;;1.93;;
13406;SDS011;6774;48.208;10.766;2022-08-01T02:00:05;2.40;;;1.70;;
13406;SDS011;6774;48.208;10.766;2022-08-01T02:02:34;1.60;;;1.27;;
13406;SDS011;6774;48.208;10.766;2022-08-01T02:05:04;4.33;;;2.07;;
13406;SDS011;6774;48.208;10.766;2022-08-01T02:07:33;2.13;;;1.93;;
13406;SDS011;6774;48.208;10.766;2022-08-01T02:10:03;3.07;;;2.90;;
13406;SDS011;6774;48.208;10.766;2022-08-01T02:12:33;1.70;;;1.60;;
13406;SDS011;6774;48.208;10.766;2022-08-01T02:15:06;1.67;;;1.57;;
13406;SDS011;6774;48.208;10.766;2022-08-01T02:17:36;2.00;;;1.73;;
13406;SDS011;6774;48.208;10.766;2022-08-01T02:20:07;7.30;;;3.23;;
13406;SDS011;6774;48.208;10.766;2022-08-01T02:22:37;1.93;;;1.83;;
13406;SDS011;6774;48.208;10.766;2022-08-01T02:25:10;2.27;;;2.17;;
13406;SDS011;6774;48.208;10.766;2022-08-01T02:27:45;2.53;;;2.43;;
13406;SDS011;6774;48.208;10.766;2022-08-01T02:30:20;2.10;;;1.93;;
13406;SDS011;6774;48.208;10.766;2022-08-01T02:32:53;2.33;;;2.23;;
13406;SDS011;6774;48.208;10.766;2022-08-01T02:35:29;3.83;;;3.10;;
13406;SDS011;6774;48.208;10.766;2022-08-01T02:38:22;2.57;;;2.47;;
13406;SDS011;6774;48.208;10.766;2022-08-01T02:40:53;2.23;;;2.13;;
13406;SDS011;6774;48.208;10.766;2022-08-01T02:43:25;2.43;;;2.33;;
13406;SDS011;6774;48.208;10.766;2022-08-01T02:45:58;2.70;;;2.60;;
13406;SDS011;6774;48.208;10.766;2022-08-01T02:48:28;2.90;;;2.70;;
13406;SDS011;6774;48.208;10.766;2022-08-01T02:51:01;4.27;;;3.87;;
13406;SDS011;6774;48.208;10.766;2022-08-01T02:53:31;2.77;;;2.67;;
13406;SDS011;6774;48.208;10.766;2022-08-01T02:56:10;3.10;;;2.90;;
13406;SDS011;6774;48.208;10.766;2022-08-01T02:58:41;2.53;;;2.43;;
13406;SDS011;6774;48.208;10.766;2022-08-01T03:01:12;2.70;;;2.17;;
13406;SDS011;6774;48.208;10.766;2022-08-01T03:03:45;2.50;;;2.30;;
13406;SDS011;6774;48.208;10.766;2022-08-01T03:06:14;2.07;;;1.97;;
13406;SDS011;6774;48.208;10.766;2022-08-01T03:08:43;2.33;;;2.23;;
13406;SDS011;6774;48.208;10.766;2022-08-01T03:11:15;2.03;;;1.93;;
13406;SDS011;6774;48.208;10.766;2022-08-01T03:13:44;2.57;;;2.37;;
13406;SDS011;6774;48.208;10.766;2022-08-01T03:16:15;1.87;;;1.77;;
13406;SDS011;6774;48.208;10.766;2022-08-01T03:18:45;3.60;;;2.03;;
13406;SDS011;6774;48.208;10.766;2022-08-01T03:21:15;2.30;;;2.20;;
13406;SDS011;6774;48.208;10.766;2022-08-01T03:23:46;1.80;;;1.70;;
13406;SDS011;6774;48.208;10.766;2022-08-01T03:26:20;2.67;;;2.30;;
13406;SDS011;6774;48.208;10.766;2022-08-01T03:28:49;3.77;;;3.47;;
13406;SDS011;6774;48.208;10.766;2022-08-01T03:31:22;2.83;;;2.63;;
13406;SDS011;6774;48.208;10.766;2022-08-01T03:33:51;3.07;;;2.87;;
13406;SDS011;6774;48.208;10.766;2022-08-01T03:36:20;11.07;;;3.20;;
13406;SDS011;6774;48.208;10.766;2022-08-01T03:38:52;4.63;;;2.20;;
13406;SDS011;6774;48.208;10.766;2022-08-01T03:41:27;3.37;;;3.07;;
13406;SDS011;6774;48.208;10.766;2022-08-01T03:44:00;2.27;;;2.17;;
13406;SDS011;6774;48.208;10.766;2022-08-01T03:46:39;5.50;;;2.90;;
13406;SDS011;6774;48.208;10.766;2022-08-01T03:49:11;2.63;;;2.50;;
13406;SDS011;6774;48.208;10.766;2022-08-01T03:51:44;2.13;;;2.03;;
13406;SDS011;6774;48.208;10.766;2022-08-01T03:54:16;2.40;;;2.30;;
13406;SDS011;6774;48.208;10.766;2022-08-01T03:56:47;2.77;;;2.67;;
13406;SDS011;6774;48.208;10.766;2022-08-01T03:59:18;2.30;;;2.17;;
13406;SDS011;6774;48.208;10.766;2022-08-01T04:01:49;2.77;;;2.57;;
13406;SDS011;6774;48.208;10.766;2022-08-01T04:04:17;2.40;;;2.30;;
13406;SDS011;6774;48.208;10.766;2022-08-01T04:06:45;3.53;;;3.20;;
13406;SDS011;6774;48.208;10.766;2022-08-01T04:09:17;2.40;;;2.30;;
13406;SDS011;6774;48.208;10.766;2022-08-01T04:11:45;2.47;;;2.27;;
13406;SDS011;6774;48.208;10.766;2022-08-01T04:14:13;2.23;;;2.13;;
13406;SDS011;6774;48.208;10.766;2022-08-01T04:16:41;2.33;;;2.23;;
13406;SDS011;6774;48.208;10.766;2022-08-01T04:19:12;3.73;;;2.73;;
13406;SDS011;6774;48.208;10.766;2022-08-01T04:21:39;2.50;;;2.40;;
13406;SDS011;6774;48.208;10.766;2022-08-01T04:24:09;2.03;;;1.67;;
13406;SDS011;6774;48.208;10.766;2022-08-01T04:26:41;2.40;;;2.10;;
13406;SDS011;6774;48.208;10.766;2022-08-01T04:29:12;3.07;;;2.07;;
13406;SDS011;6774;48.208;10.766;2022-08-01T04:31:45;3.13;;;2.93;;
13406;SDS011;6774;48.208;10.766;2022-08-01T04:34:17;9.13;;;1.77;;
13406;SDS011;6774;48.208;10.766;2022-08-01T04:36:49;1.60;;;1.50;;
13406;SDS011;6774;48.208;10.766;2022-08-01T04:39:19;2.27;;;2.07;;
13406;SDS011;6774;48.208;10.766;2022-08-01T04:41:54;1.80;;;1.70;;
13406;SDS011;6774;48.208;10.766;2022-08-01T04:44:23;4.73;;;1.93;;
13406;SDS011;6774;48.208;10.766;2022-08-01T04:46:58;2.20;;;1.63;;
13406;SDS011;6774;48.208;10.766;2022-08-01T04:49:28;2.10;;;1.90;;
13406;SDS011;6774;48.208;10.766;2022-08-01T04:52:09;3.20;;;3.00;;
13406;SDS011;6774;48.208;10.766;2022-08-01T04:54:44;2.20;;;2.10;;
13406;SDS011;6774;48.208;10.766;2022-08-01T04:57:12;4.27;;;1.90;;
13406;SDS011;6774;48.208;10.766;2022-08-01T04:59:42;2.70;;;1.47;;
13406;SDS011;6774;48.208;10.766;2022-08-01T05:02:11;2.57;;;2.40;;
13406;SDS011;6774;48.208;10.766;2022-08-01T05:04:42;1.77;;;1.67;;
13406;SDS011;6774;48.208;10.766;2022-08-01T05:07:11;2.23;;;2.13;;
13406;SDS011;6774;48.208;10.766;2022-08-01T05:09:40;2.20;;;2.10;;
13406;SDS011;6774;48.208;10.766;2022-08-01T05:12:09;2.07;;;1.97;;
13406;SDS011;6774;48.208;10.766;2022-08-01T05:14:37;2.73;;;1.93;;
13406;SDS011;6774;48.208;10.766;2022-08-01T05:17:06;1.93;;;1.80;;
13406;SDS011;6774;48.208;10.766;2022-08-01T05:19:36;1.73;;;1.63;;
13406;SDS011;6774;48.208;10.766;2022-08-01T05:22:08;1.93;;;1.83;;
13406;SDS011;6774;48.208;10.766;2022-08-01T05:24:38;2.03;;;1.93;;
13406;SDS011;6774;48.208;10.766;2022-08-01T05:27:07;2.17;;;1.63;;
13406;SDS011;6774;48.208;10.766;2022-08-01T05:29:36;1.90;;;1.80;;
13406;SDS011;6774;48.208;10.766;2022-08-01T05:32:10;2.33;;;2.17;;
13406;SDS011;6774;48.208;10.766;2022-08-01T05:34:38;1.80;;;1.70;;
13406;SDS011;6774;48.208;10.766;2022-08-01T05:37:07;4.90;;;1.67;;
13406;SDS011;6774;48.208;10.766;2022-08-01T05:39:35;2.53;;;1.90;;
13406;SDS011;6774;48.208;10.766;2022-08-01T05:42:03;2.87;;;1.50;;
13406;SDS011;6774;48.208;10.766;2022-08-01T05:44:32;1.90;;;1.80;;
13406;SDS011;6774;48.208;10.766;2022-08-01T05:47:00;2.60;;;1.00;;
13406;SDS011;6774;48.208;10.766;2022-08-01T05:49:29;2.00;;;1.90;;
13406;SDS011;6774;48.208;10.766;2022-08-01T05:51:56;1.53;;;1.47;;
13406;SDS011;6774;48.208;10.766;2022-08-01T05:54:26;1.77;;;1.50;;
13406;SDS011;6774;48.208;10.766;2022-08-01T05:56:54;2.07;;;1.40;;
13406;SDS011;6774;48.208;10.766;2022-08-01T05:59:26;1.97;;;1.87;;
13406;SDS011;6774;48.208;10.766;2022-08-01T06:01:54;1.70;;;1.60;;
13406;SDS011;6774;48.208;10.766;2022-08-01T06:04:22;4.77;;;1.80;;
13406;SDS011;6774;48.208;10.766;2022-08-01T06:06:50;1.10;;;0.97;;
13406;SDS011;6774;48.208;10.766;2022-08-01T06:09:18;2.30;;;1.70;;
13406;SDS011;6774;48.208;10.766;2022-08-01T06:11:47;1.30;;;1.20;;
13406;SDS011;6774;48.208;10.766;2022-08-01T06:14:15;1.97;;;1.83;;
13406;SDS011;6774;48.208;10.766;2022-08-01T06:16:43;1.73;;;1.63;;
13406;SDS011;6774;48.208;10.766;2022-08-01T06:19:11;1.60;;;1.53;;
13406;SDS011;6774;48.208;10.766;2022-08-01T06:21:38;1.33;;;1.33;;
13406;SDS011;6774;48.208;10.766;2022-08-01T06:24:06;4.73;;;1.77;;
13406;SDS011;6774;48.208;10.766;2022-08-01T06:26:35;2.53;;;2.07;;
13406;SDS011;6774;48.208;10.766;2022-08-01T06:29:04;1.20;;;1.10;;
13406;SDS011;6774;48.208;10.766;2022-08-01T06:31:35;2.20;;;1.13;;
13406;SDS011;6774;48.208;10.766;2022-08-01T06:34:02;1.40;;;1.40;;
13406;SDS011;6774;48.208;10.766;2022-08-01T06:36:30;2.20;;;2.00;;
13406;SDS011;6774;48.208;10.766;2022-08-01T06:38:58;1.60;;;1.60;;
13406;SDS011;6774;48.208;10.766;2022-08-01T06:41:26;1.60;;;1.50;;
13406;SDS011;6774;48.208;10.766;2022-08-01T06:43:54;1.57;;;1.47;;
13406;SDS011;6774;48.208;10.766;2022-08-01T06:46:23;1.73;;;1.63;;
13406;SDS011;6774;48.208;10.766;2022-08-01T06:48:57;1.73;;;1.63;;
13406;SDS011;6774;48.208;10.766;2022-08-01T06:51:25;2.13;;;2.03;;
13406;SDS011;6774;48.208;10.766;2022-08-01T06:53:53;1.70;;;1.60;;
13406;SDS011;6774;48.208;10.766;2022-08-01T06:56:20;1.13;;;1.07;;
13406;SDS011;6774;48.208;10.766;2022-08-01T06:58:49;3.40;;;1.70;;
13406;SDS011;6774;48.208;10.766;2022-08-01T07:01:17;3.60;;;2.57;;
13406;SDS011;6774;48.208;10.766;2022-08-01T07:03:46;3.17;;;2.07;;
13406;SDS011;6774;48.208;10.766;2022-08-01T07:06:20;2.33;;;2.13;;
13406;SDS011;6774;48.208;10.766;2022-08-01T07:08:49;2.13;;;1.93;;
13406;SDS011;6774;48.208;10.766;2022-08-01T07:11:16;2.20;;;2.10;;
13406;SDS011;6774;48.208;10.766;2022-08-01T07:13:44;2.77;;;1.63;;
13406;SDS011;6774;48.208;10.766;2022-08-01T07:16:12;1.73;;;1.63;;
13406;SDS011;6774;48.208;10.766;2022-08-01T07:18:40;1.67;;;1.57;;
13406;SDS011;6774;48.208;10.766;2022-08-01T07:21:10;1.60;;;1.50;;
13406;SDS011;6774;48.208;10.766;2022-08-01T07:23:58;2.73;;;1.37;;
13406;SDS011;6774;48.208;10.766;2022-08-01T07:26:25;1.60;;;1.50;;
13406;SDS011;6774;48.208;10.766;2022-08-01T07:28:53;4.57;;;1.50;;
13406;SDS011;6774;48.208;10.766;2022-08-01T07:31:21;1.57;;;1.47;;
13406;SDS011;6774;48.208;10.766;2022-08-01T07:33:55;1.60;;;1.50;;
13406;SDS011;6774;48.208;10.766;2022-08-01T07:36:24;2.60;;;1.40;;
13406;SDS011;6774;48.208;10.766;2022-08-01T07:38:51;1.70;;;1.60;;
13406;SDS011;6774;48.208;10.766;2022-08-01T07:41:19;1.50;;;1.40;;
13406;SDS011;6774;48.208;10.766;2022-08-01T07:44:07;2.30;;;2.10;;
13406;SDS011;6774;48.208;10.766;2022-08-01T07:46:35;3.80;;;1.90;;
13406;SDS011;6774;48.208;10.766;2022-08-01T07:49:03;1.50;;;1.40;;
13406;SDS011;6774;48.208;10.766;2022-08-01T07:51:32;5.33;;;1.43;;
13406;SDS011;6774;48.208;10.766;2022-08-01T07:54:00;2.80;;;2.60;;
13406;SDS011;6774;48.208;10.766;2022-08-01T07:56:28;2.63;;;1.97;;
13406;SDS011;6774;48.208;10.766;2022-08-01T07:58:56;2.03;;;1.93;;
13406;SDS011;6774;48.208;10.766;2022-08-01T08:01:23;2.13;;;1.57;;
13406;SDS011;6774;48.208;10.766;2022-08-01T08:03:51;2.40;;;2.30;;
13406;SDS011;6774;48.208;10.766;2022-08-01T08:06:19;3.30;;;2.33;;
13406;SDS011;6774;48.208;10.766;2022-08-01T08:08:49;1.47;;;1.40;;
13406;SDS011;6774;48.208;10.766;2022-08-01T08:11:18;2.67;;;2.57;;
13406;SDS011;6774;48.208;10.766;2022-08-01T08:13:46;2.83;;;2.63;;
13406;SDS011;6774;48.208;10.766;2022-08-01T08:16:13;1.77;;;1.63;;
13406;SDS011;6774;48.208;10.766;2022-08-01T08:18:41;1.83;;;1.73;;
13406;SDS011;6774;48.208;10.766;2022-08-01T08:21:09;2.27;;;2.17;;
13406;SDS011;6774;48.208;10.766;2022-08-01T08:23:36;2.10;;;1.90;;
13406;SDS011;6774;48.208;10.766;2022-08-01T08:26:23;2.37;;;2.27;;
13406;SDS011;6774;48.208;10.766;2022-08-01T08:28:51;1.90;;;1.80;;
13406;SDS011;6774;48.208;10.766;2022-08-01T08:31:19;2.83;;;2.63;;
13406;SDS011;6774;48.208;10.766;2022-08-01T08:33:51;1.95;;;1.80;;
13406;SDS011;6774;48.208;10.766;2022-08-01T08:36:18;2.15;;;2.05;;
13406;SDS011;6774;48.208;10.766;2022-08-01T08:38:53;1.90;;;1.80;;
13406;SDS011;6774;48.208;10.766;2022-08-01T08:41:21;1.23;;;1.20;;
13406;SDS011;6774;48.208;10.766;2022-08-01T08:43:51;4.93;;;2.05;;
13406;SDS011;6774;48.208;10.766;2022-08-01T08:46:19;6.78;;;2.95;;
13406;SDS011;6774;48.208;10.766;2022-08-01T08:48:54;3.63;;;1.95;;
13406;SDS011;6774;48.208;10.766;2022-08-01T08:51:24;1.48;;;1.48;;
13406;SDS011;6774;48.208;10.766;2022-08-01T08:53:54;1.13;;;1.13;;
13406;SDS011;6774;48.208;10.766;2022-08-01T08:56:23;1.67;;;1.58;;
13406;SDS011;6774;48.208;10.766;2022-08-01T08:58:55;1.17;;;1.05;;
13406;SDS011;6774;48.208;10.766;2022-08-01T09:01:22;1.27;;;1.27;;
13406;SDS011;6774;48.208;10.766;2022-08-01T09:03:50;4.00;;;2.17;;
13406;SDS011;6774;48.208;10.766;2022-08-01T09:06:18;4.00;;;1.23;;
13406;SDS011;6774;48.208;10.766;2022-08-01T09:08:46;1.75;;;1.65;;
13406;SDS011;6774;48.208;10.766;2022-08-01T09:11:14;7.85;;;2.33;;
13406;SDS011;6774;48.208;10.766;2022-08-01T09:14:02;1.42;;;1.33;;
13406;SDS011;6774;48.208;10.766;2022-08-01T09:16:36;1.38;;;1.27;;
13406;SDS011;6774;48.208;10.766;2022-08-01T09:19:14;1.23;;;1.13;;
13406;SDS011;6774;48.208;10.766;2022-08-01T09:22:03;1.73;;;1.63;;
13406;SDS011;6774;48.208;10.766;2022-08-01T09:24:33;1.13;;;0.85;;
13406;SDS011;6774;48.208;10.766;2022-08-01T09:27:14;3.10;;;1.55;;
13406;SDS011;6774;48.208;10.766;2022-08-01T09:29:48;1.05;;;1.05;;
13406;SDS011;6774;48.208;10.766;2022-08-01T09:32:27;1.50;;;1.08;;
13406;SDS011;6774;48.208;10.766;2022-08-01T09:38:12;0.57;;;0.57;;
13406;SDS011;6774;48.208;10.766;2022-08-01T09:40:46;4.32;;;1.15;;
13406;SDS011;6774;48.208;10.766;2022-08-01T09:43:15;1.42;;;1.27;;
13406;SDS011;6774;48.208;10.766;2022-08-01T09:45:46;0.65;;;0.65;;
13406;SDS011;6774;48.208;10.766;2022-08-01T09:48:18;1.02;;;0.85;;
13406;SDS011;6774;48.208;10.766;2022-08-01T09:50:48;0.82;;;0.82;;
13406;SDS011;6774;48.208;10.766;2022-08-01T09:53:18;1.00;;;0.88;;
13406;SDS011;6774;48.208;10.766;2022-08-01T09:56:07;2.55;;;1.08;;
13406;SDS011;6774;48.208;10.766;2022-08-01T09:58:48;0.93;;;0.93;;
13406;SDS011;6774;48.208;10.766;2022-08-01T10:01:27;2.00;;;1.27;;
13406;SDS011;6774;48.208;10.766;2022-08-01T10:04:08;1.17;;;1.13;;
13406;SDS011;6774;48.208;10.766;2022-08-01T10:06:38;1.08;;;1.08;;
13406;SDS011;6774;48.208;10.766;2022-08-01T10:09:09;1.58;;;1.48;;
13406;SDS011;6774;48.208;10.766;2022-08-01T10:11:40;1.08;;;1.08;;
13406;SDS011;6774;48.208;10.766;2022-08-01T10:14:10;0.77;;;0.77;;
13406;SDS011;6774;48.208;10.766;2022-08-01T10:16:45;0.82;;;0.82;;
13406;SDS011;6774;48.208;10.766;2022-08-01T10:19:20;1.15;;;1.15;;
13406;SDS011;6774;48.208;10.766;2022-08-01T10:21:50;1.30;;;1.30;;
13406;SDS011;6774;48.208;10.766;2022-08-01T10:24:25;2.42;;;0.70;;
13406;SDS011;6774;48.208;10.766;2022-08-01T10:26:58;1.48;;;1.30;;
13406;SDS011;6774;48.208;10.766;2022-08-01T10:29:35;1.50;;;1.10;;
13406;SDS011;6774;48.208;10.766;2022-08-01T10:32:13;1.85;;;1.17;;
13406;SDS011;6774;48.208;10.766;2022-08-01T10:34:47;3.10;;;1.15;;
13406;SDS011;6774;48.208;10.766;2022-08-01T10:37:16;0.90;;;0.90;;
13406;SDS011;6774;48.208;10.766;2022-08-01T10:39:44;0.70;;;0.65;;
13406;SDS011;6774;48.208;10.766;2022-08-01T10:42:12;2.15;;;0.60;;
13406;SDS011;6774;48.208;10.766;2022-08-01T10:44:41;1.00;;;1.00;;
13406;SDS011;6774;48.208;10.766;2022-08-01T10:47:17;0.80;;;0.80;;
13406;SDS011;6774;48.208;10.766;2022-08-01T10:50:11;1.30;;;1.20;;
13406;SDS011;6774;48.208;10.766;2022-08-01T10:53:05;1.60;;;1.60;;
13406;SDS011;6774;48.208;10.766;2022-08-01T10:55:49;0.63;;;0.63;;
13406;SDS011;6774;48.208;10.766;2022-08-01T10:58:21;2.67;;;1.08;;
13406;SDS011;6774;48.208;10.766;2022-08-01T11:04:00;2.00;;;1.80;;
13406;SDS011;6774;48.208;10.766;2022-08-01T11:06:42;1.05;;;1.05;;
13406;SDS011;6774;48.208;10.766;2022-08-01T11:12:07;1.27;;;1.05;;
13406;SDS011;6774;48.208;10.766;2022-08-01T11:17:56;1.00;;;1.00;;
13406;SDS011;6774;48.208;10.766;2022-08-01T11:20:28;2.50;;;0.98;;
13406;SDS011;6774;48.208;10.766;2022-08-01T11:23:16;5.97;;;1.08;;
13406;SDS011;6774;48.208;10.766;2022-08-01T11:26:07;1.58;;;1.35;;
13406;SDS011;6774;48.208;10.766;2022-08-01T11:28:37;1.42;;;1.00;;
13406;SDS011;6774;48.208;10.766;2022-08-01T11:31:28;4.47;;;1.67;;
13406;SDS011;6774;48.208;10.766;2022-08-01T11:34:03;0.82;;;0.82;;
13406;SDS011;6774;48.208;10.766;2022-08-01T11:36:32;6.68;;;1.20;;
13406;SDS011;6774;48.208;10.766;2022-08-01T11:39:21;2.45;;;0.90;;
13406;SDS011;6774;48.208;10.766;2022-08-01T11:41:49;2.25;;;1.98;;
13406;SDS011;6774;48.208;10.766;2022-08-01T11:44:23;0.60;;;0.60;;
13406;SDS011;6774;48.208;10.766;2022-08-01T11:47:00;0.70;;;0.70;;
13406;SDS011;6774;48.208;10.766;2022-08-01T11:52:27;0.95;;;0.95;;
13406;SDS011;6774;48.208;10.766;2022-08-01T11:55:04;1.02;;;0.93;;
13406;SDS011;6774;48.208;10.766;2022-08-01T11:57:35;0.60;;;0.60;;
13406;SDS011;6774;48.208;10.766;2022-08-01T12:00:06;1.02;;;0.65;;
13406;SDS011;6774;48.208;10.766;2022-08-01T12:02:42;1.30;;;1.20;;
13406;SDS011;6774;48.208;10.766;2022-08-01T12:05:12;0.88;;;0.88;;
13406;SDS011;6774;48.208;10.766;2022-08-01T12:07:44;1.02;;;0.90;;
13406;SDS011;6774;48.208;10.766;2022-08-01T12:10:17;1.00;;;0.90;;
13406;SDS011;6774;48.208;10.766;2022-08-01T12:12:46;1.00;;;1.00;;
13406;SDS011;6774;48.208;10.766;2022-08-01T12:15:16;0.88;;;0.88;;
13406;SDS011;6774;48.208;10.766;2022-08-01T12:17:46;0.80;;;0.80;;
13406;SDS011;6774;48.208;10.766;2022-08-01T12:20:25;1.23;;;1.20;;
13406;SDS011;6774;48.208;10.766;2022-08-01T12:22:58;1.17;;;1.13;;
13406;SDS011;6774;48.208;10.766;2022-08-01T12:25:28;0.82;;;0.82;;
13406;SDS011;6774;48.208;10.766;2022-08-01T12:27:59;0.98;;;0.90;;
13406;SDS011;6774;48.208;10.766;2022-08-01T12:30:28;1.40;;;1.30;;
13406;SDS011;6774;48.208;10.766;2022-08-01T12:32:57;1.50;;;1.40;;
13406;SDS011;6774;48.208;10.766;2022-08-01T12:35:26;0.90;;;0.90;;
13406;SDS011;6774;48.208;10.766;2022-08-01T12:37:56;1.23;;;1.13;;
13406;SDS011;6774;48.208;10.766;2022-08-01T12:40:28;2.88;;;1.00;;
13406;SDS011;6774;48.208;10.766;2022-08-01T12:42:57;1.75;;;1.05;;
13406;SDS011;6774;48.208;10.766;2022-08-01T12:45:27;0.65;;;0.65;;
13406;SDS011;6774;48.208;10.766;2022-08-01T12:47:57;0.82;;;0.82;;
13406;SDS011;6774;48.208;10.766;2022-08-01T12:50:26;0.90;;;0.90;;
13406;SDS011;6774;48.208;10.766;2022-08-01T12:52:59;0.80;;;0.80;;
13406;SDS011;6774;48.208;10.766;2022-08-01T12:55:28;3.13;;;2.25;;
13406;SDS011;6774;48.208;10.766;2022-08-01T12:58:03;0.93;;;0.90;;
13406;SDS011;6774;48.208;10.766;2022-08-01T13:00:40;0.73;;;0.73;;
13406;SDS011;6774;48.208;10.766;2022-08-01T13:03:11;0.80;;;0.80;;
13406;SDS011;6774;48.208;10.766;2022-08-01T13:05:42;0.90;;;0.90;;
13406;SDS011;6774;48.208;10.766;2022-08-01T13:08:12;1.05;;;0.93;;
13406;SDS011;6774;48.208;10.766;2022-08-01T13:10:42;0.80;;;0.80;;
13406;SDS011;6774;48.208;10.766;2022-08-01T13:13:11;0.98;;;0.85;;
13406;SDS011;6774;48.208;10.766;2022-08-01T13:16:02;1.20;;;1.20;;
13406;SDS011;6774;48.208;10.766;2022-08-01T13:18:32;1.13;;;1.13;;
13406;SDS011;6774;48.208;10.766;2022-08-01T13:21:08;2.30;;;0.82;;
13406;SDS011;6774;48.208;10.766;2022-08-01T13:23:38;1.00;;;0.95;;
13406;SDS011;6774;48.208;10.766;2022-08-01T13:26:39;0.93;;;0.90;;
13406;SDS011;6774;48.208;10.766;2022-08-01T13:29:09;2.72;;;1.13;;
13406;SDS011;6774;48.208;10.766;2022-08-01T13:31:39;1.60;;;1.50;;
13406;SDS011;6774;48.208;10.766;2022-08-01T13:34:09;2.20;;;1.30;;
13406;SDS011;6774;48.208;10.766;2022-08-01T13:36:38;3.10;;;1.70;;
13406;SDS011;6774;48.208;10.766;2022-08-01T13:39:15;5.18;;;1.00;;
13406;SDS011;6774;48.208;10.766;2022-08-01T13:42:01;2.53;;;1.08;;
13406;SDS011;6774;48.208;10.766;2022-08-01T13:44:29;0.77;;;0.77;;
13406;SDS011;6774;48.208;10.766;2022-08-01T13:46:58;1.02;;;0.60;;
13406;SDS011;6774;48.208;10.766;2022-08-01T13:49:27;0.95;;;0.95;;
13406;SDS011;6774;48.208;10.766;2022-08-01T13:52:04;1.15;;;1.08;;
13406;SDS011;6774;48.208;10.766;2022-08-01T13:54:35;2.13;;;1.40;;
13406;SDS011;6774;48.208;10.766;2022-08-01T13:57:03;1.23;;;1.15;;
13406;SDS011;6774;48.208;10.766;2022-08-01T13:59:31;1.08;;;1.08;;
13406;SDS011;6774;48.208;10.766;2022-08-01T14:01:59;0.98;;;0.98;;
13406;SDS011;6774;48.208;10.766;2022-08-01T14:04:27;1.63;;;1.52;;
13406;SDS011;6774;48.208;10.766;2022-08-01T14:06:55;0.88;;;0.88;;
13406;SDS011;6774;48.208;10.766;2022-08-01T14:09:24;3.28;;;1.33;;
13406;SDS011;6774;48.208;10.766;2022-08-01T14:11:59;1.23;;;1.13;;
13406;SDS011;6774;48.208;10.766;2022-08-01T14:14:27;1.88;;;1.58;;
13406;SDS011;6774;48.208;10.766;2022-08-01T14:16:55;0.80;;;0.80;;
13406;SDS011;6774;48.208;10.766;2022-08-01T14:19:23;2.15;;;1.13;;
13406;SDS011;6774;48.208;10.766;2022-08-01T14:22:05;0.93;;;0.93;;
13406;SDS011;6774;48.208;10.766;2022-08-01T14:24:33;1.15;;;1.15;;
13406;SDS011;6774;48.208;10.766;2022-08-01T14:27:05;0.60;;;0.60;;
13406;SDS011;6774;48.208;10.766;2022-08-01T14:29:33;0.70;;;0.70;;
13406;SDS011;6774;48.208;10.766;2022-08-01T14:32:21;0.57;;;0.55;;
13406;SDS011;6774;48.208;10.766;2022-08-01T14:34:54;0.68;;;0.68;;
13406;SDS011;6774;48.208;10.766;2022-08-01T14:37:22;1.00;;;1.00;;
13406;SDS011;6774;48.208;10.766;2022-08-01T14:39:54;5.65;;;0.98;;
13406;SDS011;6774;48.208;10.766;2022-08-01T14:42:25;0.55;;;0.55;;
13406;SDS011;6774;48.208;10.766;2022-08-01T14:44:53;0.55;;;0.55;;
13406;SDS011;6774;48.208;10.766;2022-08-01T14:47:21;0.80;;;0.73;;
13406;SDS011;6774;48.208;10.766;2022-08-01T14:49:49;0.50;;;0.30;;
13406;SDS011;6774;48.208;10.766;2022-08-01T14:52:17;0.47;;;0.47;;
13406;SDS011;6774;48.208;10.766;2022-08-01T14:54:45;0.35;;;0.35;;
13406;SDS011;6774;48.208;10.766;2022-08-01T14:57:14;0.40;;;0.40;;
13406;SDS011;6774;48.208;10.766;2022-08-01T14:59:46;0.63;;;0.55;;
13406;SDS011;6774;48.208;10.766;2022-08-01T15:02:14;0.70;;;0.70;;
13406;SDS011;6774;48.208;10.766;2022-08-01T15:04:43;0.30;;;0.30;;
13406;SDS011;6774;48.208;10.766;2022-08-01T15:07:11;1.17;;;0.50;;
13406;SDS011;6774;48.208;10.766;2022-08-01T15:09:40;1.30;;;0.50;;
13406;SDS011;6774;48.208;10.766;2022-08-01T15:12:08;0.30;;;0.30;;
13406;SDS011;6774;48.208;10.766;2022-08-01T15:14:36;0.40;;;0.40;;
13406;SDS011;6774;48.208;10.766;2022-08-01T15:17:18;0.73;;;0.73;;
13406;SDS011;6774;48.208;10.766;2022-08-01T15:19:48;2.35;;;1.00;;
13406;SDS011;6774;48.208;10.766;2022-08-01T15:22:18;1.15;;;0.98;;
13406;SDS011;6774;48.208;10.766;2022-08-01T15:24:48;4.38;;;0.95;;
13406;SDS011;6774;48.208;10.766;2022-08-01T15:27:22;0.95;;;0.40;;
13406;SDS011;6774;48.208;10.766;2022-08-01T15:29:50;1.85;;;0.45;;
13406;SDS011;6774;48.208;10.766;2022-08-01T15:32:20;2.47;;;1.52;;